Siler City, North Carolina
Current Conditions -  °F | °C
As of 5:35 AM on Monday 22 Dec 2014 (Local Time) from K5W8 Reporting Station
Overcast Overcast  
Wind Chill: -1°   Ceiling: 500
Heat Index:   Visibility: 10mi
Dew Point:   Wind: 8mph
Humidity: 98%   Direction: 20°NNE
Pressure: 30.14"   Gusts: 16mph
Location:  35.72°N, 79.46°W
Report Text: K5W8 221035Z AUTO 02007G14KT 10SM OVC005 02/02 A3014 RMK AO2 T00210018
Loading
Personal Weather Stations






























Interactive Weather Map New forecast layout! Learn more

10-Day Weather Forecast

Advertisements
Track Severe Weather on mobile